createdAt,value
2018-04-23T00:00:39.702Z,1003.57
2018-04-23T00:01:39.690Z,1003.48
2018-04-23T00:02:39.676Z,1003.59
2018-04-23T00:03:39.678Z,1003.71
2018-04-23T00:04:39.653Z,1003.90
2018-04-23T00:05:39.640Z,1003.80
2018-04-23T00:06:39.635Z,1003.86
2018-04-23T00:07:39.613Z,1003.86
2018-04-23T00:08:39.602Z,1003.99
2018-04-23T00:09:39.599Z,1004.03
2018-04-23T00:10:39.577Z,1004.08
2018-04-23T00:11:39.564Z,1004.07
2018-04-23T00:12:39.552Z,1004.05
2018-04-23T00:13:39.540Z,1003.99
2018-04-23T00:14:39.558Z,1004.00
2018-04-23T00:15:39.515Z,1003.98
2018-04-23T00:16:39.502Z,1003.93
2018-04-23T00:17:39.489Z,1003.92
2018-04-23T00:18:39.477Z,1003.93
2018-04-23T00:19:39.464Z,1003.90
2018-04-23T00:20:39.462Z,1003.86
2018-04-23T00:21:39.439Z,1003.82
2018-04-23T00:22:39.427Z,1003.80
2018-04-23T00:23:39.412Z,1003.77
2018-04-23T00:24:39.401Z,1003.71
2018-04-23T00:25:39.403Z,1003.68
2018-04-23T00:26:39.376Z,1003.64
2018-04-23T00:27:39.364Z,1003.64
2018-04-23T00:28:39.356Z,1003.63
2018-04-23T00:29:39.337Z,1003.79
2018-04-23T00:30:39.324Z,1003.87
2018-04-23T00:31:39.323Z,1003.86
2018-04-23T00:32:39.301Z,1003.88
2018-04-23T00:33:39.286Z,1003.92
2018-04-23T00:34:39.275Z,1004.01
2018-04-23T00:35:39.261Z,1004.06
2018-04-23T00:36:39.265Z,1004.09
2018-04-23T00:37:39.237Z,1003.96
2018-04-23T00:38:39.223Z,1003.85
2018-04-23T00:39:39.212Z,1003.88
2018-04-23T00:40:39.200Z,1003.81
2018-04-23T00:41:39.188Z,1003.79
2018-04-23T00:42:39.187Z,1003.79
2018-04-23T00:43:39.161Z,1003.72
2018-04-23T00:44:39.148Z,1003.59
2018-04-23T00:45:39.136Z,1003.53
2018-04-23T00:46:39.124Z,1003.52
2018-04-23T00:47:39.127Z,1003.57
2018-04-23T00:48:39.099Z,1003.51
2018-04-23T00:49:39.086Z,1003.48
2018-04-23T00:50:39.072Z,1003.39
2018-04-23T00:51:39.063Z,1003.35
2018-04-23T00:52:39.048Z,1003.41
2018-04-23T00:53:39.047Z,1003.41
2018-04-23T00:54:39.023Z,1003.41
2018-04-23T00:55:39.011Z,1003.43
2018-04-23T00:56:39.002Z,1003.39
2018-04-23T00:57:38.985Z,1003.43
2018-04-23T00:58:38.986Z,1003.43
2018-04-23T00:59:38.960Z,1003.44
2018-04-23T01:00:38.946Z,1003.48
2018-04-23T01:01:38.934Z,1003.47
2018-04-23T01:02:38.923Z,1003.49
2018-04-23T01:03:38.909Z,1003.50
2018-04-23T01:04:38.906Z,1003.51
2018-04-23T01:05:38.884Z,1003.50
2018-04-23T01:06:38.871Z,1003.48
2018-04-23T01:07:38.859Z,1003.48
2018-04-23T01:08:38.846Z,1003.50
2018-04-23T01:09:38.856Z,1003.46
2018-04-23T01:10:38.820Z,1003.48
2018-04-23T01:11:38.808Z,1003.47
2018-04-23T01:12:38.796Z,1003.45
2018-04-23T01:13:38.783Z,1003.48
2018-04-23T01:14:38.769Z,1003.47
2018-04-23T01:15:38.768Z,1003.49
2018-04-23T01:16:38.745Z,1003.48
2018-04-23T01:17:38.734Z,1003.49
2018-04-23T01:18:38.719Z,1003.48
2018-04-23T01:19:38.707Z,1003.46
2018-04-23T01:20:38.708Z,1003.51
2018-04-23T01:21:38.683Z,1003.53
2018-04-23T01:22:38.669Z,1003.52
2018-04-23T01:23:38.657Z,1003.55
2018-04-23T01:24:38.644Z,1003.57
2018-04-23T01:25:38.633Z,1003.55
2018-04-23T01:26:38.628Z,1003.59
2018-04-23T01:27:38.606Z,1003.60
2018-04-23T01:28:38.592Z,1003.59
2018-04-23T01:29:38.582Z,1003.62
2018-04-23T01:30:38.568Z,1003.62
2018-04-23T01:31:38.574Z,1003.63
2018-04-23T01:32:38.544Z,1003.63
2018-04-23T01:33:38.531Z,1003.67
2018-04-23T01:34:38.518Z,1003.67
2018-04-23T01:35:38.505Z,1003.69
2018-04-23T01:36:38.493Z,1003.67
2018-04-23T01:37:38.494Z,1003.72
2018-04-23T01:38:38.467Z,1003.74
2018-04-23T01:39:38.455Z,1003.78
2018-04-23T01:40:38.443Z,1003.78
2018-04-23T01:41:38.430Z,1003.79
2018-04-23T01:42:38.418Z,1003.79
2018-04-23T01:43:38.415Z,1003.80
2018-04-23T01:44:38.391Z,1003.81
2018-04-23T01:45:38.379Z,1003.81
2018-04-23T01:46:38.372Z,1003.83
2018-04-23T01:47:38.353Z,1003.84
2018-04-23T01:48:38.352Z,1003.84
2018-04-23T01:49:38.328Z,1003.83
2018-04-23T01:50:38.315Z,1003.84
2018-04-23T01:51:38.304Z,1003.86
2018-04-23T01:52:38.291Z,1003.89
2018-04-23T01:53:38.293Z,1003.90
2018-04-23T01:54:38.265Z,1003.88
2018-04-23T01:55:38.251Z,1003.88
2018-04-23T01:56:38.240Z,1003.90
2018-04-23T01:57:38.228Z,1003.93
2018-04-23T01:58:38.216Z,1003.95
2018-04-23T01:59:38.217Z,1004.05
2018-04-23T02:00:38.190Z,1004.10
2018-04-23T02:01:38.179Z,1004.12
2018-04-23T02:02:38.163Z,1004.14
2018-04-23T02:03:38.152Z,1004.13
2018-04-23T02:04:38.138Z,1004.15
2018-04-23T02:05:38.138Z,1004.13
2018-04-23T02:06:38.112Z,1004.18
2018-04-23T02:07:38.102Z,1004.20
2018-04-23T02:08:38.090Z,1004.22
2018-04-23T02:09:38.079Z,1004.24
2018-04-23T02:10:38.076Z,1004.31
2018-04-23T02:11:38.054Z,1004.33
2018-04-23T02:12:38.039Z,1004.37
2018-04-23T02:13:38.026Z,1004.38
2018-04-23T02:14:38.013Z,1004.40
2018-04-23T02:15:38.009Z,1004.38
2018-04-23T02:16:37.987Z,1004.41
2018-04-23T02:17:37.974Z,1004.39
2018-04-23T02:18:37.961Z,1004.39
2018-04-23T02:19:37.950Z,1004.43
2018-04-23T02:20:37.949Z,1004.38
2018-04-23T02:21:37.924Z,1004.33
2018-04-23T02:22:37.914Z,1004.28
2018-04-23T02:23:37.941Z,1004.25
2018-04-23T02:24:37.886Z,1004.22
2018-04-23T02:25:37.874Z,1004.15
2018-04-23T02:26:37.875Z,1004.07
2018-04-23T02:27:37.848Z,1004.03
2018-04-23T02:28:37.837Z,1003.97
2018-04-23T02:29:37.824Z,1003.89
2018-04-23T02:30:37.814Z,1003.84
2018-04-23T02:31:37.798Z,1003.83
2018-04-23T02:32:37.794Z,1003.82
2018-04-23T02:33:37.774Z,1003.88
2018-04-23T02:34:37.760Z,1003.94
2018-04-23T02:35:37.747Z,1004.07
2018-04-23T02:36:37.737Z,1004.06
2018-04-23T02:37:37.734Z,1004.03
2018-04-23T02:38:37.707Z,1004.10
2018-04-23T02:39:37.697Z,1004.09
2018-04-23T02:40:37.685Z,1004.09
2018-04-23T02:41:37.672Z,1004.08
2018-04-23T02:42:37.672Z,1004.09
2018-04-23T02:43:37.647Z,1004.10
2018-04-23T02:44:37.636Z,1004.05
2018-04-23T02:45:37.622Z,1004.13
2018-04-23T02:46:37.607Z,1004.15
2018-04-23T02:47:37.596Z,1004.14
2018-04-23T02:48:37.597Z,1004.14
2018-04-23T02:49:37.571Z,1004.18
2018-04-23T02:50:37.557Z,1004.20
2018-04-23T02:51:37.544Z,1004.17
2018-04-23T02:52:37.532Z,1004.16
2018-04-23T02:53:37.520Z,1004.17
2018-04-23T02:54:37.517Z,1004.18
2018-04-23T02:55:37.495Z,1004.19
2018-04-23T02:56:37.483Z,1004.14
2018-04-23T02:57:37.469Z,1004.17
2018-04-23T02:58:37.457Z,1004.19
2018-04-23T02:59:37.454Z,1004.27
2018-04-23T03:00:37.431Z,1004.26
2018-04-23T03:01:37.419Z,1004.30
2018-04-23T03:02:37.472Z,1004.32
2018-04-23T03:03:37.394Z,1004.37
2018-04-23T03:04:37.394Z,1004.34
2018-04-23T03:05:37.367Z,1004.39
2018-04-23T03:06:37.355Z,1004.35
2018-04-23T03:07:37.343Z,1004.37
2018-04-23T03:08:37.331Z,1004.38
2018-04-23T03:09:37.317Z,1004.42
2018-04-23T03:10:37.346Z,1004.40
2018-04-23T03:11:37.294Z,1004.40
2018-04-23T03:12:37.279Z,1004.41
2018-04-23T03:13:37.267Z,1004.38
2018-04-23T03:14:37.252Z,1004.33
2018-04-23T03:15:37.240Z,1004.29
2018-04-23T03:16:37.239Z,1004.29
2018-04-23T03:17:37.216Z,1004.25
2018-04-23T03:18:37.202Z,1004.21
2018-04-23T03:19:37.194Z,1004.26
2018-04-23T03:20:37.177Z,1004.22
2018-04-23T03:21:37.601Z,1004.28
2018-04-23T03:22:37.153Z,1004.29
2018-04-23T03:23:37.139Z,1004.31
2018-04-23T03:24:37.127Z,1004.27
2018-04-23T03:25:37.121Z,1004.23
2018-04-23T03:26:37.102Z,1004.24
2018-04-23T03:27:37.104Z,1004.24
2018-04-23T03:28:37.076Z,1004.25
2018-04-23T03:29:37.064Z,1004.26
2018-04-23T03:30:37.050Z,1004.32
2018-04-23T03:31:37.039Z,1004.34
2018-04-23T03:32:37.026Z,1004.36
2018-04-23T03:33:37.024Z,1004.40
2018-04-23T03:34:36.999Z,1004.40
2018-04-23T03:35:36.987Z,1004.39
2018-04-23T03:36:36.975Z,1004.40
2018-04-23T03:37:36.962Z,1004.37
2018-04-23T03:38:36.963Z,1004.34
2018-04-23T03:39:36.943Z,1004.31
2018-04-23T03:40:36.978Z,1004.26
2018-04-23T03:41:36.912Z,1004.27
2018-04-23T03:42:36.899Z,1004.24
2018-04-23T03:43:36.889Z,1004.23
2018-04-23T03:44:36.883Z,1004.26
2018-04-23T03:45:36.865Z,1004.28
2018-04-23T03:46:36.847Z,1004.30
2018-04-23T03:47:36.834Z,1004.33
2018-04-23T03:48:36.825Z,1004.36
2018-04-23T03:49:36.842Z,1004.33
2018-04-23T03:50:36.852Z,1004.37
2018-04-23T03:51:36.785Z,1004.41
2018-04-23T03:52:36.804Z,1004.45
2018-04-23T03:53:36.759Z,1004.45
2018-04-23T03:54:36.746Z,1004.42
2018-04-23T03:55:36.746Z,1004.44
2018-04-23T03:56:36.724Z,1004.46
2018-04-23T03:57:36.777Z,1004.47
2018-04-23T03:58:36.693Z,1004.49
2018-04-23T03:59:36.683Z,1004.47
2018-04-23T04:00:36.688Z,1004.45
2018-04-23T04:01:36.659Z,1004.42
2018-04-23T04:02:36.645Z,1004.48
2018-04-23T04:03:36.631Z,1004.48
2018-04-23T04:04:36.620Z,1004.51
2018-04-23T04:05:36.608Z,1004.55
2018-04-23T04:06:36.609Z,1004.58
2018-04-23T04:07:36.581Z,1004.58
2018-04-23T04:08:36.569Z,1004.53
2018-04-23T04:09:36.556Z,1004.55
2018-04-23T04:10:36.543Z,1004.57
2018-04-23T04:11:36.543Z,1004.56
2018-04-23T04:12:36.520Z,1004.53
2018-04-23T04:13:36.505Z,1004.56
2018-04-23T04:14:36.493Z,1004.51
2018-04-23T04:15:36.480Z,1004.47
2018-04-23T04:16:36.482Z,1004.49
2018-04-23T04:17:36.455Z,1004.47
2018-04-23T04:18:36.442Z,1004.45
2018-04-23T04:19:36.436Z,1004.47
2018-04-23T04:20:36.419Z,1004.46
2018-04-23T04:21:36.409Z,1004.47
2018-04-23T04:22:36.401Z,1004.44
2018-04-23T04:23:36.384Z,1004.49
2018-04-23T04:24:36.366Z,1004.51
2018-04-23T04:25:36.354Z,1004.52
2018-04-23T04:26:36.340Z,1004.51
2018-04-23T04:27:36.343Z,1004.54
2018-04-23T04:28:36.316Z,1004.47
2018-04-23T04:29:36.303Z,1004.47
2018-04-23T04:30:36.288Z,1004.45
2018-04-23T04:31:36.277Z,1004.40
2018-04-23T04:32:36.265Z,1004.42
2018-04-23T04:33:36.264Z,1004.42
2018-04-23T04:34:36.238Z,1004.44
2018-04-23T04:35:36.285Z,1004.45
2018-04-23T04:36:36.211Z,1004.48
2018-04-23T04:37:36.201Z,1004.56
2018-04-23T04:38:36.204Z,1004.56
2018-04-23T04:39:36.175Z,1004.57
2018-04-23T04:40:36.163Z,1004.54
2018-04-23T04:41:36.151Z,1004.56
2018-04-23T04:42:36.139Z,1004.54
2018-04-23T04:43:36.127Z,1004.59
2018-04-23T04:44:36.125Z,1004.63
2018-04-23T04:45:36.100Z,1004.56
2018-04-23T04:46:36.085Z,1004.53
2018-04-23T04:47:36.075Z,1004.51
2018-04-23T04:48:36.063Z,1004.57
2018-04-23T04:49:36.082Z,1004.51
2018-04-23T04:50:36.035Z,1004.52
2018-04-23T04:51:36.029Z,1004.50
2018-04-23T04:52:36.015Z,1004.53
2018-04-23T04:53:35.999Z,1004.59
2018-04-23T04:54:35.986Z,1004.60
2018-04-23T04:55:35.983Z,1004.63
2018-04-23T04:56:35.960Z,1004.66
2018-04-23T04:57:35.947Z,1004.67
2018-04-23T04:58:35.936Z,1004.70
2018-04-23T04:59:35.922Z,1004.73
2018-04-23T05:00:35.924Z,1004.73
2018-04-23T05:01:35.897Z,1004.75
2018-04-23T05:02:35.882Z,1004.73
2018-04-23T05:03:35.870Z,1004.69
2018-04-23T05:04:35.858Z,1004.71
2018-04-23T05:05:35.846Z,1004.72
2018-04-23T05:06:35.843Z,1004.71
2018-04-23T05:07:35.821Z,1004.73
2018-04-23T05:08:35.807Z,1004.77
2018-04-23T05:09:35.794Z,1004.79
2018-04-23T05:10:35.781Z,1004.83
2018-04-23T05:11:35.791Z,1004.83
2018-04-23T05:12:35.756Z,1004.82
2018-04-23T05:13:35.744Z,1004.82
2018-04-23T05:14:35.731Z,1004.79
2018-04-23T05:15:35.717Z,1004.83
2018-04-23T05:16:35.705Z,1004.85
2018-04-23T05:17:35.707Z,1004.85
2018-04-23T05:18:35.679Z,1004.91
2018-04-23T05:19:35.668Z,1004.88
2018-04-23T05:20:35.654Z,1004.92
2018-04-23T05:21:35.643Z,1004.95
2018-04-23T05:22:35.628Z,1004.98
2018-04-23T05:23:35.696Z,1004.97
2018-04-23T05:24:35.604Z,1004.99
2018-04-23T05:25:35.591Z,1004.95
2018-04-23T05:26:35.577Z,1005.01
2018-04-23T05:27:35.565Z,1005.00
2018-04-23T05:28:35.585Z,1005.01
2018-04-23T05:29:35.541Z,1005.06
2018-04-23T05:30:35.526Z,1005.04
2018-04-23T05:31:35.515Z,1005.06
2018-04-23T05:32:35.504Z,1005.05
2018-04-23T05:33:35.490Z,1005.04
2018-04-23T05:34:35.493Z,1005.09
2018-04-23T05:35:35.464Z,1005.10
2018-04-23T05:36:35.451Z,1005.12
2018-04-23T05:37:35.465Z,1005.17
2018-04-23T05:38:35.425Z,1005.18
2018-04-23T05:39:35.413Z,1005.18
2018-04-23T05:40:35.410Z,1005.19
2018-04-23T05:41:35.388Z,1005.20
2018-04-23T05:42:35.376Z,1005.19
2018-04-23T05:43:35.362Z,1005.20
2018-04-23T05:44:35.351Z,1005.24
2018-04-23T05:45:35.353Z,1005.21
2018-04-23T05:46:35.323Z,1005.18
2018-04-23T05:47:35.315Z,1005.11
2018-04-23T05:48:35.298Z,1005.10
2018-04-23T05:49:35.286Z,1005.10
2018-04-23T05:50:35.289Z,1005.10
2018-04-23T05:51:35.262Z,1005.16
2018-04-23T05:52:35.248Z,1005.15
2018-04-23T05:53:35.236Z,1005.16
2018-04-23T05:54:35.225Z,1005.15
2018-04-23T05:55:35.207Z,1005.12
2018-04-23T05:56:35.213Z,1005.15
2018-04-23T05:57:35.185Z,1005.14
2018-04-23T05:58:35.171Z,1005.15
2018-04-23T05:59:35.158Z,1005.20
2018-04-23T06:00:35.167Z,1005.21
2018-04-23T06:01:35.134Z,1005.26
2018-04-23T06:02:35.130Z,1005.28
2018-04-23T06:03:35.108Z,1005.32
2018-04-23T06:04:35.096Z,1005.33
2018-04-23T06:05:35.087Z,1005.34
2018-04-23T06:06:35.079Z,1005.42
2018-04-23T06:07:35.070Z,1005.42
2018-04-23T06:08:35.057Z,1005.41
2018-04-23T06:09:35.043Z,1005.41
2018-04-23T06:10:35.022Z,1005.43
2018-04-23T06:11:35.008Z,1005.46
2018-04-23T06:12:35.011Z,1005.49
2018-04-23T06:13:34.983Z,1005.48
2018-04-23T06:14:34.972Z,1005.51
2018-04-23T06:15:34.956Z,1005.50
2018-04-23T06:16:34.942Z,1005.47
2018-04-23T06:17:34.929Z,1005.47
2018-04-23T06:18:34.931Z,1005.47
2018-04-23T06:19:34.908Z,1005.46
2018-04-23T06:20:34.897Z,1005.45
2018-04-23T06:21:34.884Z,1005.47
2018-04-23T06:22:34.870Z,1005.49
2018-04-23T06:23:34.858Z,1005.51
2018-04-23T06:24:34.856Z,1005.49
2018-04-23T06:25:34.833Z,1005.52
2018-04-23T06:26:34.819Z,1005.57
2018-04-23T06:27:34.813Z,1005.60
2018-04-23T06:28:34.798Z,1005.58
2018-04-23T06:29:34.796Z,1005.61
2018-04-23T06:30:34.769Z,1005.59
2018-04-23T06:31:34.758Z,1005.62
2018-04-23T06:32:34.745Z,1005.59
2018-04-23T06:33:34.730Z,1005.64
2018-04-23T06:34:34.736Z,1005.68
2018-04-23T06:35:34.707Z,1005.63
2018-04-23T06:36:34.701Z,1005.66
2018-04-23T06:37:34.683Z,1005.66
2018-04-23T06:38:34.671Z,1005.65
2018-04-23T06:39:34.658Z,1005.63
2018-04-23T06:40:34.660Z,1005.69
2018-04-23T06:41:34.633Z,1005.62
2018-04-23T06:42:34.620Z,1005.67
2018-04-23T06:43:34.610Z,1005.67
2018-04-23T06:44:34.595Z,1005.71
2018-04-23T06:45:34.585Z,1005.64
2018-04-23T06:46:34.581Z,1005.69
2018-04-23T06:47:34.559Z,1005.67
2018-04-23T06:48:34.546Z,1005.65
2018-04-23T06:49:34.536Z,1005.68
2018-04-23T06:50:34.524Z,1005.68
2018-04-23T06:51:34.520Z,1005.73
2018-04-23T06:52:34.504Z,1005.71
2018-04-23T06:53:34.486Z,1005.75
2018-04-23T06:54:34.474Z,1005.76
2018-04-23T06:55:34.459Z,1005.74
2018-04-23T06:56:34.460Z,1005.78
2018-04-23T06:57:34.436Z,1005.79
2018-04-23T06:58:34.424Z,1005.82
2018-04-23T06:59:34.412Z,1005.80
2018-04-23T07:00:34.400Z,1005.79
2018-04-23T07:01:34.398Z,1005.81
2018-04-23T07:02:34.376Z,1005.82
2018-04-23T07:03:34.365Z,1005.84
2018-04-23T07:04:34.351Z,1005.84
2018-04-23T07:05:34.339Z,1005.89
2018-04-23T07:06:34.342Z,1005.90
2018-04-23T07:07:34.315Z,1005.91
2018-04-23T07:08:34.304Z,1005.91
2018-04-23T07:09:34.290Z,1005.93
2018-04-23T07:10:34.277Z,1005.99
2018-04-23T07:11:34.266Z,1005.97
2018-04-23T07:12:34.270Z,1005.93
2018-04-23T07:13:34.243Z,1005.99
2018-04-23T07:14:34.226Z,1006.03
2018-04-23T07:15:34.216Z,1005.96
2018-04-23T07:16:34.258Z,1005.98
2018-04-23T07:17:34.191Z,1005.94
2018-04-23T07:18:34.188Z,1006.00
2018-04-23T07:19:34.168Z,1006.00
2018-04-23T07:20:34.154Z,1005.96
2018-04-23T07:21:34.141Z,1006.03
2018-04-23T07:22:34.127Z,1006.01
2018-04-23T07:23:34.127Z,1006.08
2018-04-23T07:24:34.104Z,1006.09
2018-04-23T07:25:34.094Z,1006.08
2018-04-23T07:26:34.079Z,1006.07
2018-04-23T07:27:34.067Z,1006.10
2018-04-23T07:28:34.074Z,1006.08
2018-04-23T07:29:34.045Z,1006.11
2018-04-23T07:30:34.030Z,1006.08
2018-04-23T07:31:34.018Z,1006.11
2018-04-23T07:32:34.005Z,1006.09
2018-04-23T07:33:34.003Z,1006.09
2018-04-23T07:34:33.980Z,1006.10
2018-04-23T07:35:33.971Z,1006.09
2018-04-23T07:36:33.959Z,1006.04
2018-04-23T07:37:33.944Z,1006.06
2018-04-23T07:38:34.209Z,1006.07
2018-04-23T07:39:33.920Z,1006.03
2018-04-23T07:40:33.908Z,1006.01
2018-04-23T07:41:33.895Z,1006.06
2018-04-23T07:42:33.882Z,1006.10
2018-04-23T07:43:33.871Z,1006.08
2018-04-23T07:44:33.890Z,1006.07
2018-04-23T07:45:33.845Z,1006.08
2018-04-23T07:46:33.835Z,1006.11
2018-04-23T07:47:33.822Z,1006.14
2018-04-23T07:48:33.809Z,1006.13
2018-04-23T07:49:33.795Z,1006.15
2018-04-23T07:50:33.792Z,1006.14
2018-04-23T07:51:33.772Z,1006.18
2018-04-23T07:52:33.765Z,1006.19
2018-04-23T07:53:33.748Z,1006.21
2018-04-23T07:54:33.734Z,1006.13
2018-04-23T07:55:33.731Z,1006.19
2018-04-23T07:56:33.710Z,1006.18
2018-04-23T07:57:33.697Z,1006.15
2018-04-23T07:58:33.683Z,1006.19
2018-04-23T07:59:33.670Z,1006.21
2018-04-23T08:00:33.668Z,1006.18
2018-04-23T08:01:33.648Z,1006.25
2018-04-23T08:02:33.634Z,1006.20
2018-04-23T08:03:33.621Z,1006.18
2018-04-23T08:04:33.610Z,1006.17
2018-04-23T08:05:33.607Z,1006.23
2018-04-23T08:06:33.626Z,1006.27
2018-04-23T08:07:33.570Z,1006.23
2018-04-23T08:08:33.566Z,1006.19
2018-04-23T08:09:33.546Z,1006.25
2018-04-23T08:10:33.548Z,1006.28
2018-04-23T08:11:33.520Z,1006.28
2018-04-23T08:12:33.509Z,1006.27
2018-04-23T08:13:33.497Z,1006.33
2018-04-23T08:14:33.487Z,1006.32
2018-04-23T08:15:33.470Z,1006.33
2018-04-23T08:16:33.473Z,1006.29
2018-04-23T08:17:33.447Z,1006.32
2018-04-23T08:18:33.433Z,1006.30
2018-04-23T08:19:33.421Z,1006.28
2018-04-23T08:20:33.409Z,1006.33
2018-04-23T08:21:33.397Z,1006.34
2018-04-23T08:22:33.394Z,1006.35
2018-04-23T08:23:33.372Z,1006.35
2018-04-23T08:24:33.359Z,1006.35
2018-04-23T08:25:33.348Z,1006.38
2018-04-23T08:26:33.333Z,1006.39
2018-04-23T08:27:33.331Z,1006.38
2018-04-23T08:28:33.310Z,1006.37
2018-04-23T08:29:33.296Z,1006.38
2018-04-23T08:30:33.286Z,1006.37
2018-04-23T08:31:33.270Z,1006.42
2018-04-23T08:32:33.270Z,1006.40
2018-04-23T08:33:33.247Z,1006.45
2018-04-23T08:34:33.235Z,1006.39
2018-04-23T08:35:33.222Z,1006.38
2018-04-23T08:36:33.209Z,1006.32
2018-04-23T08:37:33.245Z,1006.31
2018-04-23T08:38:33.184Z,1006.34
2018-04-23T08:39:33.223Z,1006.32
2018-04-23T08:40:33.163Z,1006.30
2018-04-23T08:41:33.149Z,1006.29
2018-04-23T08:42:33.135Z,1006.29
2018-04-23T08:43:33.175Z,1006.28
2018-04-23T08:44:33.113Z,1006.35
2018-04-23T08:45:33.099Z,1006.32
2018-04-23T08:46:33.088Z,1006.27
2018-04-23T08:47:33.080Z,1006.30
2018-04-23T08:48:33.077Z,1006.29
2018-04-23T08:49:33.048Z,1006.30
2018-04-23T08:50:33.038Z,1006.31
2018-04-23T08:51:33.024Z,1006.34
2018-04-23T08:52:33.012Z,1006.32
2018-04-23T08:53:33.000Z,1006.30
2018-04-23T08:54:32.996Z,1006.31
2018-04-23T08:55:32.979Z,1006.32
2018-04-23T08:56:32.961Z,1006.30
2018-04-23T08:57:32.951Z,1006.30
2018-04-23T08:58:32.937Z,1006.27
2018-04-23T08:59:32.934Z,1006.32
2018-04-23T09:00:32.913Z,1006.31
2018-04-23T09:01:32.965Z,1006.29
2018-04-23T09:02:32.887Z,1006.29
2018-04-23T09:03:32.877Z,1006.27
2018-04-23T09:04:32.874Z,1006.39
2018-04-23T09:05:32.851Z,1006.42
2018-04-23T09:06:32.839Z,1006.37
2018-04-23T09:07:32.829Z,1006.42
2018-04-23T09:08:32.816Z,1006.42
2018-04-23T09:09:32.815Z,1006.47
2018-04-23T09:10:32.788Z,1006.50
2018-04-23T09:11:32.775Z,1006.53
2018-04-23T09:12:32.764Z,1006.53
2018-04-23T09:13:32.751Z,1006.58
2018-04-23T09:14:32.742Z,1006.54
2018-04-23T09:15:32.734Z,1006.51
2018-04-23T09:16:32.716Z,1006.49
2018-04-23T09:17:32.701Z,1006.52
2018-04-23T09:18:32.687Z,1006.53
2018-04-23T09:19:32.678Z,1006.54
2018-04-23T09:20:32.678Z,1006.56
2018-04-23T09:21:32.651Z,1006.59
2018-04-23T09:22:32.636Z,1006.55
2018-04-23T09:23:32.626Z,1006.57
2018-04-23T09:24:32.615Z,1006.60
2018-04-23T09:25:32.601Z,1006.62
2018-04-23T09:26:32.597Z,1006.59
2018-04-23T09:27:32.575Z,1006.59
2018-04-23T09:28:32.563Z,1006.58
2018-04-23T09:29:32.551Z,1006.57
2018-04-23T09:30:32.538Z,1006.55
2018-04-23T09:31:32.540Z,1006.51
2018-04-23T09:32:32.512Z,1006.53
2018-04-23T09:33:32.500Z,1006.53
2018-04-23T09:34:32.490Z,1006.52
2018-04-23T09:35:32.476Z,1006.55
2018-04-23T09:36:32.473Z,1006.59
2018-04-23T09:37:32.448Z,1006.56
2018-04-23T09:38:32.439Z,1006.58
2018-04-23T09:39:32.426Z,1006.57
2018-04-23T09:40:32.414Z,1006.59
2018-04-23T09:41:32.422Z,1006.58
2018-04-23T09:42:32.387Z,1006.56
2018-04-23T09:43:32.375Z,1006.58
2018-04-23T09:44:32.385Z,1006.61
2018-04-23T09:45:32.352Z,1006.59
2018-04-23T09:46:32.338Z,1006.59
2018-04-23T09:47:32.336Z,1006.63
2018-04-23T09:48:32.312Z,1006.62
2018-04-23T09:49:32.299Z,1006.59
2018-04-23T09:50:32.290Z,1006.63
2018-04-23T09:51:32.275Z,1006.65
2018-04-23T09:52:32.279Z,1006.62
2018-04-23T09:53:32.251Z,1006.64
2018-04-23T09:54:32.244Z,1006.63
2018-04-23T09:55:32.227Z,1006.65
2018-04-23T09:56:32.214Z,1006.64
2018-04-23T09:57:32.202Z,1006.66
2018-04-23T09:58:32.199Z,1006.67
2018-04-23T09:59:32.175Z,1006.69
2018-04-23T10:00:32.164Z,1006.75
2018-04-23T10:01:32.154Z,1006.72
2018-04-23T10:02:32.138Z,1006.74
2018-04-23T10:03:32.136Z,1006.73
2018-04-23T10:04:32.114Z,1006.75
2018-04-23T10:05:32.102Z,1006.74
2018-04-23T10:06:32.089Z,1006.77
2018-04-23T10:07:32.075Z,1006.77
2018-04-23T10:08:32.078Z,1006.78
2018-04-23T10:09:32.052Z,1006.79
2018-04-23T10:10:32.039Z,1006.82
2018-04-23T10:11:32.028Z,1006.78
2018-04-23T10:12:32.017Z,1006.78
2018-04-23T10:13:32.016Z,1006.77
2018-04-23T10:14:31.994Z,1006.75
2018-04-23T10:15:31.977Z,1006.79
2018-04-23T10:16:31.965Z,1006.79
2018-04-23T10:17:31.957Z,1006.82
2018-04-23T10:18:31.938Z,1006.82
2018-04-23T10:19:31.942Z,1006.85
2018-04-23T10:20:31.918Z,1006.89
2018-04-23T10:21:31.903Z,1006.94
2018-04-23T10:22:31.890Z,1006.90
2018-04-23T10:23:31.884Z,1006.89
2018-04-23T10:24:31.866Z,1006.97
2018-04-23T10:25:31.865Z,1006.93
2018-04-23T10:26:31.838Z,1006.95
2018-04-23T10:27:31.828Z,1006.98
2018-04-23T10:28:31.815Z,1006.98
2018-04-23T10:29:31.804Z,1006.88
2018-04-23T10:30:31.800Z,1006.93
2018-04-23T10:31:31.779Z,1006.90
2018-04-23T10:32:31.766Z,1007.04
2018-04-23T10:33:31.755Z,1007.00
2018-04-23T10:34:31.741Z,1007.04
2018-04-23T10:35:31.739Z,1007.05
2018-04-23T10:36:31.717Z,1007.06
2018-04-23T10:37:31.704Z,1007.08
2018-04-23T10:38:31.693Z,1007.03
2018-04-23T10:39:31.678Z,1007.03
2018-04-23T10:40:31.681Z,1007.06
2018-04-23T10:41:31.655Z,1007.07
2018-04-23T10:42:31.641Z,1007.07
2018-04-23T10:43:31.630Z,1007.06
2018-04-23T10:44:31.617Z,1007.04
2018-04-23T10:45:31.668Z,1007.09
2018-04-23T10:46:31.606Z,1007.04
2018-04-23T10:47:31.584Z,1007.04
2018-04-23T10:48:31.566Z,1007.06
2018-04-23T10:49:31.554Z,1007.05
2018-04-23T10:50:31.543Z,1007.01
2018-04-23T10:51:31.530Z,1006.99
2018-04-23T10:52:31.527Z,1006.97
2018-04-23T10:53:31.506Z,1007.02
2018-04-23T10:54:31.497Z,1007.03
2018-04-23T10:55:31.481Z,1007.06
2018-04-23T10:56:31.469Z,1007.01
2018-04-23T10:57:31.468Z,1007.00
2018-04-23T10:58:31.443Z,1007.04
2018-04-23T10:59:31.436Z,1007.07
2018-04-23T11:00:31.421Z,1007.07
2018-04-23T11:01:31.405Z,1007.08
2018-04-23T11:02:31.404Z,1007.17
2018-04-23T11:03:31.380Z,1007.10
2018-04-23T11:04:31.370Z,1007.08
2018-04-23T11:05:31.357Z,1007.10
2018-04-23T11:06:31.344Z,1007.13
2018-04-23T11:07:31.364Z,1007.11
2018-04-23T11:08:31.320Z,1007.07
2018-04-23T11:09:31.311Z,1007.09
2018-04-23T11:10:31.295Z,1007.12
2018-04-23T11:11:31.284Z,1007.16
2018-04-23T11:12:31.271Z,1007.18
2018-04-23T11:13:31.272Z,1007.17
2018-04-23T11:14:31.248Z,1007.18
2018-04-23T11:15:31.234Z,1007.20
2018-04-23T11:16:31.221Z,1007.13
2018-04-23T11:17:31.207Z,1007.14
2018-04-23T11:18:31.195Z,1007.13
2018-04-23T11:19:31.194Z,1007.17
2018-04-23T11:20:31.169Z,1007.13
2018-04-23T11:21:31.158Z,1007.08
2018-04-23T11:22:31.145Z,1007.11
2018-04-23T11:23:31.134Z,1007.12
2018-04-23T11:24:31.131Z,1007.09
2018-04-23T11:25:31.110Z,1007.07
2018-04-23T11:26:31.099Z,1007.13
2018-04-23T11:27:31.089Z,1007.16
2018-04-23T11:28:31.072Z,1007.08
2018-04-23T11:29:31.076Z,1007.11
2018-04-23T11:30:31.052Z,1007.10
2018-04-23T11:31:31.033Z,1007.13
2018-04-23T11:32:31.026Z,1007.16
2018-04-23T11:33:31.011Z,1007.10
2018-04-23T11:34:31.003Z,1007.10
2018-04-23T11:35:30.999Z,1007.13
2018-04-23T11:36:30.975Z,1007.13
2018-04-23T11:37:30.963Z,1007.09
2018-04-23T11:38:30.958Z,1007.02
2018-04-23T11:39:30.936Z,1007.03
2018-04-23T11:40:31.186Z,1007.03
2018-04-23T11:41:30.912Z,1007.00
2018-04-23T11:42:30.897Z,1007.06
2018-04-23T11:43:30.885Z,1007.11
2018-04-23T11:44:30.880Z,1007.08
2018-04-23T11:45:30.862Z,1007.09
2018-04-23T11:46:30.860Z,1007.11
2018-04-23T11:47:30.837Z,1007.12
2018-04-23T11:48:30.828Z,1007.08
2018-04-23T11:49:30.813Z,1007.13
2018-04-23T11:50:30.799Z,1007.19
2018-04-23T11:51:30.796Z,1007.20
2018-04-23T11:52:30.776Z,1007.19
2018-04-23T11:53:30.766Z,1007.11
2018-04-23T11:54:30.750Z,1007.17
2018-04-23T11:55:30.739Z,1007.15
2018-04-23T11:56:30.736Z,1007.12
2018-04-23T11:57:30.718Z,1007.14
2018-04-23T11:58:30.700Z,1007.14
2018-04-23T11:59:30.688Z,1007.15
2018-04-23T12:00:30.678Z,1007.23
2018-04-23T12:01:30.680Z,1007.21
2018-04-23T12:02:30.661Z,1007.22
2018-04-23T12:03:30.640Z,1007.23
2018-04-23T12:04:30.654Z,1007.21
2018-04-23T12:05:30.614Z,1007.20